createdAt,value
2023-11-01T00:00:10.199Z,50.94
2023-11-01T00:03:02.565Z,50.93
2023-11-01T00:05:35.032Z,50.85
2023-11-01T00:08:08.353Z,50.98
2023-11-01T00:10:40.680Z,51.00
2023-11-01T00:13:12.986Z,50.88
2023-11-01T00:15:45.251Z,50.97
2023-11-01T00:18:17.651Z,50.92
2023-11-01T00:20:50.186Z,50.95
2023-11-01T00:23:22.620Z,50.90
2023-11-01T00:25:54.921Z,50.84
2023-11-01T00:28:28.257Z,50.84
2023-11-01T00:31:00.590Z,50.69
2023-11-01T00:33:33.006Z,50.73
2023-11-01T00:36:05.583Z,50.69
2023-11-01T00:38:38.025Z,50.69
2023-11-01T00:41:10.426Z,50.59
2023-11-01T00:43:42.849Z,50.54
2023-11-01T00:46:15.314Z,50.57
2023-11-01T00:48:47.654Z,50.47
2023-11-01T00:51:19.946Z,50.51
2023-11-01T00:53:52.636Z,50.38
2023-11-01T00:56:24.980Z,50.46
2023-11-01T00:58:57.375Z,50.39
2023-11-01T01:01:29.714Z,50.53
2023-11-01T01:04:02.288Z,50.71
2023-11-01T01:06:34.673Z,50.61
2023-11-01T01:09:07.066Z,50.42
2023-11-01T01:11:39.396Z,50.34
2023-11-01T01:14:11.749Z,50.42
2023-11-01T01:16:44.372Z,50.42
2023-11-01T01:19:16.772Z,50.51
2023-11-01T01:21:49.041Z,50.27
2023-11-01T01:24:21.514Z,50.19
2023-11-01T01:26:53.899Z,50.23
2023-11-01T01:29:26.442Z,50.22
2023-11-01T01:31:58.905Z,50.17
2023-11-01T01:34:31.263Z,50.15
2023-11-01T01:37:04.328Z,50.12
2023-11-01T01:39:36.649Z,50.11
2023-11-01T01:42:09.068Z,50.21
2023-11-01T01:44:41.442Z,50.23
2023-11-01T01:47:14.714Z,50.16
2023-11-01T01:49:47.815Z,50.24
2023-11-01T01:52:21.562Z,50.21
2023-11-01T01:54:54.851Z,50.25
2023-11-01T01:57:29.304Z,50.26
2023-11-01T02:00:02.057Z,50.20
2023-11-01T02:02:34.631Z,50.22
2023-11-01T02:05:08.458Z,50.08
2023-11-01T02:07:40.715Z,50.18
2023-11-01T02:10:15.770Z,50.12
2023-11-01T02:12:48.204Z,50.13
2023-11-01T02:15:20.612Z,50.16
2023-11-01T02:17:52.983Z,50.13
2023-11-01T02:20:25.523Z,50.12
2023-11-01T02:22:58.130Z,50.09
2023-11-01T02:25:30.733Z,50.11
2023-11-01T02:28:04.686Z,50.08
2023-11-01T02:30:37.324Z,50.09
2023-11-01T02:33:09.828Z,50.13
2023-11-01T02:35:42.118Z,50.13
2023-11-01T02:38:14.493Z,50.17
2023-11-01T02:40:46.833Z,50.22
2023-11-01T02:43:19.751Z,50.18
2023-11-01T02:45:52.232Z,50.25
2023-11-01T02:48:24.496Z,50.24
2023-11-01T02:50:56.678Z,50.25
2023-11-01T02:53:29.015Z,50.31
2023-11-01T02:56:01.351Z,50.46
2023-11-01T02:58:35.255Z,50.48
2023-11-01T03:01:08.320Z,50.51
2023-11-01T03:03:40.652Z,50.58
2023-11-01T03:06:13.182Z,50.71
2023-11-01T03:08:45.756Z,50.81
2023-11-01T03:11:18.153Z,50.86
2023-11-01T03:13:50.431Z,50.96
2023-11-01T03:16:22.807Z,51.11
2023-11-01T03:18:55.006Z,51.17
2023-11-01T03:21:27.451Z,51.47
2023-11-01T03:23:59.760Z,51.46
2023-11-01T03:26:32.043Z,51.67
2023-11-01T03:29:04.436Z,51.68
2023-11-01T03:31:36.818Z,51.80
2023-11-01T03:34:09.212Z,51.92
2023-11-01T03:36:41.501Z,51.95
2023-11-01T03:39:15.889Z,52.03
2023-11-01T03:41:48.210Z,52.10
2023-11-01T03:44:20.870Z,52.09
2023-11-01T03:46:53.185Z,52.17
2023-11-01T03:49:31.041Z,52.19
2023-11-01T03:52:04.548Z,52.23
2023-11-01T03:54:37.002Z,52.34
2023-11-01T03:57:09.446Z,52.38
2023-11-01T03:59:42.325Z,52.44
2023-11-01T04:02:14.618Z,52.46
2023-11-01T04:04:46.949Z,52.55
2023-11-01T04:07:19.204Z,52.58
2023-11-01T04:09:51.520Z,52.72
2023-11-01T04:12:23.817Z,52.80
2023-11-01T04:14:56.148Z,52.78
2023-11-01T04:17:28.595Z,52.81
2023-11-01T04:20:01.287Z,52.91
2023-11-01T04:22:33.654Z,53.02
2023-11-01T04:25:07.694Z,53.17
2023-11-01T04:27:43.268Z,53.16
2023-11-01T04:30:16.982Z,53.21
2023-11-01T04:32:50.790Z,53.34
2023-11-01T04:35:23.217Z,53.42
2023-11-01T04:37:55.897Z,53.53
2023-11-01T04:40:28.292Z,53.71
2023-11-01T04:43:00.697Z,53.86
2023-11-01T04:45:33.530Z,53.94
2023-11-01T04:48:06.081Z,54.07
2023-11-01T04:50:38.328Z,54.14
2023-11-01T04:53:11.141Z,54.33
2023-11-01T04:55:45.497Z,54.43
2023-11-01T04:58:19.810Z,54.58
2023-11-01T05:00:52.268Z,54.74
2023-11-01T05:03:25.814Z,54.81
2023-11-01T05:05:58.289Z,54.97
2023-11-01T05:08:30.771Z,55.23
2023-11-01T05:11:03.525Z,55.23
2023-11-01T05:13:35.863Z,55.32
2023-11-01T05:16:09.572Z,55.47
2023-11-01T05:18:41.974Z,55.51
2023-11-01T05:21:14.635Z,55.69
2023-11-01T05:23:47.872Z,55.68
2023-11-01T05:26:20.459Z,55.85
2023-11-01T05:28:52.673Z,55.92
2023-11-01T05:31:25.048Z,56.00
2023-11-01T05:33:57.880Z,55.96
2023-11-01T05:36:30.348Z,56.10
2023-11-01T05:39:06.767Z,56.16
2023-11-01T05:41:39.176Z,56.19
2023-11-01T05:44:11.628Z,56.29
2023-11-01T05:46:43.999Z,56.22
2023-11-01T05:49:16.892Z,56.33
2023-11-01T05:51:49.998Z,56.48
2023-11-01T05:54:22.433Z,56.41
2023-11-01T05:56:55.795Z,56.38
2023-11-01T05:59:29.113Z,56.35
2023-11-01T06:02:01.428Z,56.43
2023-11-01T06:04:34.205Z,56.50
2023-11-01T06:07:06.693Z,56.43
2023-11-01T06:09:39.020Z,56.43
2023-11-01T06:12:11.661Z,56.43
2023-11-01T06:14:44.013Z,56.50
2023-11-01T06:17:16.340Z,56.31
2023-11-01T06:19:50.620Z,56.32
2023-11-01T06:22:22.971Z,56.21
2023-11-01T06:24:56.118Z,56.17
2023-11-01T06:27:29.497Z,56.02
2023-11-01T06:30:01.810Z,55.87
2023-11-01T06:32:36.947Z,55.93
2023-11-01T06:35:10.678Z,55.76
2023-11-01T06:37:42.961Z,55.77
2023-11-01T06:40:16.872Z,55.76
2023-11-01T06:42:49.341Z,55.81
2023-11-01T06:45:21.756Z,55.65
2023-11-01T06:47:54.130Z,55.60
2023-11-01T06:50:26.532Z,55.44
2023-11-01T06:52:58.898Z,55.40
2023-11-01T06:55:31.225Z,55.33
2023-11-01T06:58:03.588Z,55.35
2023-11-01T07:00:35.918Z,55.38
2023-11-01T07:03:11.746Z,55.47
2023-11-01T07:05:44.820Z,55.35
2023-11-01T07:08:17.188Z,55.48
2023-11-01T07:10:49.928Z,55.45
2023-11-01T07:13:22.256Z,55.44
2023-11-01T07:15:55.478Z,55.35
2023-11-01T07:18:27.831Z,55.41
2023-11-01T07:21:00.262Z,55.57
2023-11-01T07:23:32.815Z,55.42
2023-11-01T07:26:05.277Z,55.47
2023-11-01T07:28:38.575Z,55.24
2023-11-01T07:31:10.901Z,55.21
2023-11-01T07:33:44.304Z,55.13
2023-11-01T07:36:16.688Z,55.02
2023-11-01T07:38:49.198Z,55.04
2023-11-01T07:41:22.147Z,55.02
2023-11-01T07:43:54.748Z,54.84
2023-11-01T07:46:27.064Z,55.02
2023-11-01T07:48:59.587Z,54.74
2023-11-01T07:51:31.987Z,54.50
2023-11-01T07:54:04.339Z,54.45
2023-11-01T07:56:36.657Z,54.44
2023-11-01T07:59:09.441Z,54.33
2023-11-01T08:01:42.359Z,53.98
2023-11-01T08:04:15.104Z,53.78
2023-11-01T08:06:47.897Z,53.73
2023-11-01T08:09:20.166Z,53.57
2023-11-01T08:11:53.409Z,53.36
2023-11-01T08:14:25.780Z,53.71
2023-11-01T08:16:58.139Z,53.58
2023-11-01T08:19:30.500Z,52.99
2023-11-01T08:22:02.950Z,53.06
2023-11-01T08:24:35.144Z,52.73
2023-11-01T08:27:07.817Z,52.76
2023-11-01T08:29:43.668Z,52.30
2023-11-01T08:32:16.154Z,52.17
2023-11-01T08:34:48.527Z,52.04
2023-11-01T08:37:21.006Z,51.77
2023-11-01T08:39:53.588Z,51.97
2023-11-01T08:42:25.958Z,51.89
2023-11-01T08:44:58.528Z,51.46
2023-11-01T08:47:41.511Z,51.46
2023-11-01T08:50:15.195Z,51.15
2023-11-01T08:52:47.851Z,51.00
2023-11-01T08:55:20.329Z,50.68
2023-11-01T08:57:52.934Z,50.70
2023-11-01T09:00:38.836Z,50.33
2023-11-01T09:03:15.848Z,49.93
2023-11-01T09:05:48.552Z,49.52
2023-11-01T09:08:21.383Z,49.67
2023-11-01T09:10:54.757Z,49.27
2023-11-01T09:13:27.285Z,48.93
2023-11-01T09:16:00.638Z,48.95
2023-11-01T09:18:33.003Z,48.89
2023-11-01T09:21:05.463Z,48.60
2023-11-01T09:23:38.076Z,48.28
2023-11-01T09:26:13.507Z,48.09
2023-11-01T09:28:45.813Z,47.67
2023-11-01T09:31:18.130Z,47.41
2023-11-01T09:33:51.106Z,47.38
2023-11-01T09:36:23.507Z,47.21
2023-11-01T09:38:55.877Z,46.95
2023-11-01T09:41:31.722Z,46.57
2023-11-01T09:44:04.147Z,46.41
2023-11-01T09:46:37.252Z,46.32
2023-11-01T09:49:09.769Z,46.08
2023-11-01T09:51:42.461Z,45.85
2023-11-01T09:54:15.404Z,45.67
2023-11-01T09:56:49.278Z,45.47
2023-11-01T09:59:21.700Z,45.15
2023-11-01T10:01:54.001Z,44.79
2023-11-01T10:04:26.685Z,44.53
2023-11-01T10:07:01.026Z,44.42
2023-11-01T10:09:33.521Z,44.01
2023-11-01T10:12:09.581Z,43.36
2023-11-01T10:14:42.122Z,43.10
2023-11-01T10:17:14.371Z,43.29
2023-11-01T10:19:48.720Z,43.03
2023-11-01T10:22:22.957Z,42.69
2023-11-01T10:25:00.741Z,42.52
2023-11-01T10:27:40.386Z,41.99
2023-11-01T10:30:14.667Z,41.75
2023-11-01T10:32:57.737Z,41.57
2023-11-01T10:35:30.327Z,41.84
2023-11-01T10:38:03.993Z,41.56
2023-11-01T10:40:38.277Z,41.12
2023-11-01T10:43:11.505Z,40.69
2023-11-01T10:45:44.089Z,40.14
2023-11-01T10:48:17.314Z,39.77
2023-11-01T10:50:49.843Z,39.71
2023-11-01T10:53:24.360Z,39.82
2023-11-01T10:55:58.281Z,39.63
2023-11-01T10:58:31.774Z,39.69
2023-11-01T11:01:12.310Z,39.64
2023-11-01T11:03:52.915Z,39.66
2023-11-01T11:06:35.411Z,39.74
2023-11-01T11:09:25.147Z,39.69
2023-11-01T11:12:18.638Z,39.42
2023-11-01T11:14:52.687Z,39.48
2023-11-01T11:17:26.055Z,39.40
2023-11-01T11:20:16.126Z,39.32
2023-11-01T11:23:15.049Z,39.25
2023-11-01T11:25:54.619Z,39.31
2023-11-01T11:28:49.111Z,38.54
2023-11-01T11:31:26.443Z,38.80
2023-11-01T11:34:17.411Z,38.75
2023-11-01T11:37:07.582Z,38.83
2023-11-01T11:39:56.826Z,38.78
2023-11-01T11:42:52.625Z,38.75
2023-11-01T11:45:32.864Z,38.79
2023-11-01T11:48:25.472Z,38.63
2023-11-01T11:51:08.354Z,38.97
2023-11-01T11:53:42.374Z,39.01
2023-11-01T11:56:18.868Z,39.05
2023-11-01T11:58:51.690Z,39.02
2023-11-01T12:01:30.880Z,38.86
2023-11-01T12:04:03.400Z,38.96
2023-11-01T12:06:46.760Z,39.16
2023-11-01T12:09:21.548Z,39.18
2023-11-01T12:11:55.644Z,39.28
2023-11-01T12:14:30.410Z,39.45
2023-11-01T12:17:05.419Z,39.41
2023-11-01T12:19:46.864Z,39.23
2023-11-01T12:22:19.356Z,39.15
2023-11-01T12:24:54.734Z,39.07
2023-11-01T12:27:33.993Z,39.10
2023-11-01T12:30:07.357Z,39.15
2023-11-01T12:32:43.055Z,38.96
2023-11-01T12:35:15.624Z,39.03
2023-11-01T12:37:47.933Z,39.15
2023-11-01T12:40:22.159Z,39.03
2023-11-01T12:43:09.866Z,39.14
2023-11-01T12:45:42.215Z,39.32
2023-11-01T12:48:17.155Z,39.42
2023-11-01T12:50:49.615Z,39.27
2023-11-01T12:53:22.836Z,39.26
2023-11-01T12:55:55.325Z,39.16
2023-11-01T12:58:27.726Z,39.08
2023-11-01T13:01:00.057Z,38.99
2023-11-01T13:03:32.652Z,39.08
2023-11-01T13:06:05.497Z,39.04
2023-11-01T13:08:37.969Z,38.95
2023-11-01T13:11:10.629Z,38.88
2023-11-01T13:13:42.922Z,38.91
2023-11-01T13:16:15.602Z,38.77
2023-11-01T13:18:48.121Z,38.96
2023-11-01T13:21:20.622Z,38.69
2023-11-01T13:23:52.940Z,38.61
2023-11-01T13:26:25.353Z,38.33
2023-11-01T13:28:57.757Z,38.32
2023-11-01T13:31:30.417Z,38.37
2023-11-01T13:34:02.998Z,38.30
2023-11-01T13:36:35.389Z,38.13
2023-11-01T13:39:08.397Z,38.31
2023-11-01T13:41:40.695Z,38.17
2023-11-01T13:44:13.127Z,38.05
2023-11-01T13:46:45.477Z,37.97
2023-11-01T13:49:17.970Z,37.96
2023-11-01T13:51:51.064Z,37.68
2023-11-01T13:54:23.435Z,37.90
2023-11-01T13:56:55.969Z,37.69
2023-11-01T13:59:28.314Z,37.72
2023-11-01T14:02:01.278Z,37.65
2023-11-01T14:04:34.291Z,37.67
2023-11-01T14:07:07.129Z,37.44
2023-11-01T14:09:39.588Z,37.43
2023-11-01T14:12:12.219Z,37.48
2023-11-01T14:14:45.437Z,37.41
2023-11-01T14:17:17.776Z,37.30
2023-11-01T14:19:50.085Z,37.26
2023-11-01T14:22:22.518Z,36.98
2023-11-01T14:24:55.808Z,37.16
2023-11-01T14:27:28.280Z,37.15
2023-11-01T14:30:01.704Z,37.02
2023-11-01T14:32:34.158Z,36.86
2023-11-01T14:35:08.583Z,36.76
2023-11-01T14:37:43.129Z,36.64
2023-11-01T14:40:15.811Z,36.63
2023-11-01T14:42:48.234Z,36.61
2023-11-01T14:45:20.664Z,36.57
2023-11-01T14:47:53.094Z,36.49
2023-11-01T14:50:25.579Z,36.48
2023-11-01T14:52:58.587Z,36.05
2023-11-01T14:55:31.504Z,36.25
2023-11-01T14:58:03.865Z,36.15
2023-11-01T15:00:36.242Z,36.12
2023-11-01T15:03:08.897Z,36.14
2023-11-01T15:05:41.330Z,36.25
2023-11-01T15:08:13.714Z,36.23
2023-11-01T15:10:46.072Z,36.25
2023-11-01T15:13:18.342Z,36.01
2023-11-01T15:15:50.605Z,36.05
2023-11-01T15:18:22.990Z,36.10
2023-11-01T15:20:55.547Z,36.08
2023-11-01T15:23:28.055Z,35.99
2023-11-01T15:26:01.962Z,36.28
2023-11-01T15:28:34.717Z,36.12
2023-11-01T15:31:08.798Z,36.21
2023-11-01T15:33:41.318Z,36.39
2023-11-01T15:36:14.259Z,36.28
2023-11-01T15:38:46.794Z,36.40
2023-11-01T15:41:19.419Z,36.47
2023-11-01T15:43:53.120Z,36.50
2023-11-01T15:46:26.568Z,36.69
2023-11-01T15:48:59.001Z,36.74
2023-11-01T15:51:31.419Z,36.79
2023-11-01T15:54:03.863Z,36.79
2023-11-01T15:56:39.947Z,36.67
2023-11-01T15:59:12.463Z,36.63
2023-11-01T16:01:44.849Z,36.88
2023-11-01T16:04:17.363Z,37.04
2023-11-01T16:06:51.231Z,36.83
2023-11-01T16:09:23.615Z,36.88
2023-11-01T16:11:56.077Z,36.84
2023-11-01T16:14:29.555Z,36.95
2023-11-01T16:17:03.826Z,37.02
2023-11-01T16:19:36.414Z,37.09
2023-11-01T16:22:09.084Z,37.35
2023-11-01T16:24:42.862Z,37.19
2023-11-01T16:27:15.321Z,37.31
2023-11-01T16:29:49.275Z,37.39
2023-11-01T16:32:22.033Z,37.38
2023-11-01T16:34:54.819Z,37.66
2023-11-01T16:37:28.666Z,37.58
2023-11-01T16:40:01.007Z,37.60
2023-11-01T16:42:34.180Z,37.60
2023-11-01T16:45:07.792Z,37.68
2023-11-01T16:47:40.925Z,37.78
2023-11-01T16:50:13.949Z,37.72
2023-11-01T16:52:46.301Z,37.82
2023-11-01T16:55:19.089Z,37.98
2023-11-01T16:57:51.926Z,37.99
2023-11-01T17:00:24.894Z,38.08
2023-11-01T17:02:57.408Z,38.11
2023-11-01T17:05:30.707Z,38.25
2023-11-01T17:08:03.522Z,38.29
2023-11-01T17:10:38.794Z,38.46
2023-11-01T17:13:11.924Z,38.40
2023-11-01T17:15:47.491Z,38.44
2023-11-01T17:18:18.718Z,38.43
2023-11-01T17:20:51.848Z,38.59
2023-11-01T17:23:24.731Z,38.61
2023-11-01T17:26:24.413Z,38.53
2023-11-01T17:28:58.299Z,38.67
2023-11-01T17:31:44.780Z,38.67
2023-11-01T17:34:30.619Z,38.72
2023-11-01T17:37:07.619Z,38.77
2023-11-01T17:39:46.616Z,38.79
2023-11-01T17:42:20.959Z,38.84
2023-11-01T17:44:54.860Z,38.78
2023-11-01T17:47:30.078Z,38.84
2023-11-01T17:50:06.255Z,38.96
2023-11-01T17:52:44.040Z,39.00
2023-11-01T17:55:18.006Z,39.02
2023-11-01T17:57:50.736Z,39.02
2023-11-01T18:00:28.074Z,38.95
2023-11-01T18:03:22.105Z,38.96
2023-11-01T18:05:58.041Z,39.14
2023-11-01T18:08:37.778Z,39.32
2023-11-01T18:11:15.903Z,39.39
2023-11-01T18:13:48.705Z,39.44
2023-11-01T18:16:30.650Z,39.42
2023-11-01T18:19:02.969Z,39.37
2023-11-01T18:21:38.414Z,39.58
2023-11-01T18:24:34.274Z,39.71
2023-11-01T18:27:07.381Z,39.69
2023-11-01T18:29:39.792Z,39.80
2023-11-01T18:32:14.863Z,39.79
2023-11-01T18:34:48.246Z,39.94
2023-11-01T18:37:22.895Z,40.04
2023-11-01T18:39:55.667Z,40.10
2023-11-01T18:42:39.389Z,40.11
2023-11-01T18:45:16.087Z,40.28
2023-11-01T18:47:50.827Z,40.37
2023-11-01T18:50:27.200Z,40.37
2023-11-01T18:53:05.130Z,40.41
2023-11-01T18:55:40.135Z,40.49
2023-11-01T18:58:12.506Z,40.46
2023-11-01T19:00:50.159Z,40.62
2023-11-01T19:03:27.036Z,40.72
2023-11-01T19:06:11.355Z,40.88
2023-11-01T19:08:44.725Z,40.82
2023-11-01T19:11:22.404Z,40.88
2023-11-01T19:13:58.677Z,40.91
2023-11-01T19:16:31.025Z,41.01
2023-11-01T19:19:06.891Z,40.91
2023-11-01T19:21:39.868Z,40.96
2023-11-01T19:24:15.606Z,41.13
2023-11-01T19:26:51.070Z,41.04
2023-11-01T19:29:24.587Z,41.06
2023-11-01T19:32:00.073Z,41.08
2023-11-01T19:34:32.518Z,41.23
2023-11-01T19:37:08.420Z,41.21
2023-11-01T19:39:40.801Z,41.22
2023-11-01T19:42:18.461Z,41.13
2023-11-01T19:44:55.181Z,41.24
2023-11-01T19:47:27.683Z,41.18
2023-11-01T19:50:01.651Z,41.34
2023-11-01T19:52:34.046Z,41.23
2023-11-01T19:55:06.969Z,41.37
2023-11-01T19:57:41.287Z,41.43
2023-11-01T20:00:16.723Z,41.59
2023-11-01T20:02:52.277Z,41.62
2023-11-01T20:05:27.809Z,41.66
2023-11-01T20:08:00.034Z,41.79
2023-11-01T20:10:35.291Z,41.92
2023-11-01T20:13:07.753Z,41.93
2023-11-01T20:15:41.867Z,41.99
2023-11-01T20:18:27.303Z,42.04
2023-11-01T20:21:00.947Z,42.21
2023-11-01T20:23:35.460Z,42.10
2023-11-01T20:26:08.168Z,42.05
2023-11-01T20:28:41.009Z,42.13
2023-11-01T20:31:15.032Z,42.11
2023-11-01T20:33:50.235Z,42.13
2023-11-01T20:36:26.761Z,42.15
2023-11-01T20:38:59.240Z,42.25
2023-11-01T20:41:34.046Z,42.31
2023-11-01T20:44:13.685Z,42.23
2023-11-01T20:46:46.017Z,42.28
2023-11-01T20:49:18.376Z,42.17
2023-11-01T20:51:52.074Z,42.14
2023-11-01T20:54:24.931Z,42.12
2023-11-01T20:56:57.865Z,42.24
2023-11-01T20:59:30.235Z,42.20
2023-11-01T21:02:02.662Z,42.23
2023-11-01T21:04:35.151Z,42.26
2023-11-01T21:07:09.005Z,42.22
2023-11-01T21:09:41.363Z,42.45
2023-11-01T21:12:14.221Z,42.43
2023-11-01T21:14:46.662Z,42.44
2023-11-01T21:17:19.233Z,42.42
2023-11-01T21:19:54.257Z,42.52
2023-11-01T21:22:27.793Z,42.52
2023-11-01T21:25:00.163Z,42.63
2023-11-01T21:27:33.179Z,42.63
2023-11-01T21:30:06.956Z,42.68
2023-11-01T21:32:39.620Z,42.71
2023-11-01T21:35:13.823Z,42.81
2023-11-01T21:37:48.830Z,42.82
2023-11-01T21:40:21.408Z,42.86
2023-11-01T21:42:56.475Z,42.87
2023-11-01T21:45:49.921Z,42.84
2023-11-01T21:48:27.127Z,42.84
2023-11-01T21:51:05.618Z,42.98
2023-11-01T21:53:39.819Z,42.95
2023-11-01T21:56:12.523Z,43.10
2023-11-01T21:58:45.372Z,42.94
2023-11-01T22:01:22.985Z,43.11
2023-11-01T22:03:58.960Z,43.09
2023-11-01T22:06:35.401Z,43.16
2023-11-01T22:09:16.915Z,43.18
2023-11-01T22:11:51.066Z,43.16
2023-11-01T22:14:39.246Z,43.31
2023-11-01T22:17:18.535Z,43.23
2023-11-01T22:19:51.710Z,43.32
2023-11-01T22:22:51.335Z,43.38
2023-11-01T22:25:35.917Z,43.47
2023-11-01T22:28:10.243Z,43.38
2023-11-01T22:30:42.614Z,43.35
2023-11-01T22:33:15.760Z,43.58
2023-11-01T22:35:49.171Z,43.55
2023-11-01T22:38:21.573Z,43.53
2023-11-01T22:40:56.238Z,43.65
2023-11-01T22:43:28.690Z,43.55
2023-11-01T22:46:01.143Z,43.74
2023-11-01T22:48:33.573Z,43.73
2023-11-01T22:51:06.214Z,43.86
2023-11-01T22:53:38.637Z,43.83
2023-11-01T22:56:12.035Z,43.92
2023-11-01T22:58:44.508Z,43.93
2023-11-01T23:01:16.927Z,44.03
2023-11-01T23:03:49.353Z,44.07
2023-11-01T23:06:21.944Z,43.98
2023-11-01T23:08:54.710Z,44.04
2023-11-01T23:11:27.148Z,44.13
2023-11-01T23:13:59.804Z,44.11
2023-11-01T23:16:32.301Z,44.18
2023-11-01T23:19:04.771Z,44.32
2023-11-01T23:21:37.666Z,44.28
2023-11-01T23:24:15.041Z,44.43
2023-11-01T23:26:59.310Z,44.40
2023-11-01T23:29:34.678Z,44.57
2023-11-01T23:32:13.299Z,44.70
2023-11-01T23:34:49.522Z,44.77
2023-11-01T23:37:29.637Z,44.85
2023-11-01T23:40:04.851Z,44.89
2023-11-01T23:42:37.932Z,44.83
2023-11-01T23:46:07.224Z,45.02
2023-11-01T23:48:42.660Z,45.01
2023-11-01T23:51:37.833Z,45.24
2023-11-01T23:54:20.086Z,45.17
2023-11-01T23:56:52.577Z,45.19
2023-11-01T23:59:24.857Z,45.27
